createdAt,value
2022-11-07T00:01:51.573Z,28.88
2022-11-07T00:04:19.011Z,32.15
2022-11-07T00:06:46.844Z,34.63
2022-11-07T00:09:14.129Z,35.38
2022-11-07T00:11:41.749Z,29.60
2022-11-07T00:14:11.280Z,27.40
2022-11-07T00:16:38.845Z,25.33
2022-11-07T00:19:06.129Z,27.65
2022-11-07T00:21:34.255Z,26.25
2022-11-07T00:24:01.988Z,21.40
2022-11-07T00:26:29.495Z,27.10
2022-11-07T00:28:57.101Z,25.98
2022-11-07T00:31:24.646Z,28.00
2022-11-07T00:33:52.669Z,25.63
2022-11-07T00:36:26.427Z,28.65
2022-11-07T00:38:54.306Z,31.15
2022-11-07T00:41:22.923Z,33.60
2022-11-07T00:43:50.209Z,23.33
2022-11-07T00:46:19.326Z,32.55
2022-11-07T00:48:47.351Z,33.08
2022-11-07T00:51:18.020Z,33.38
2022-11-07T00:53:45.785Z,29.65
2022-11-07T00:56:15.661Z,26.65
2022-11-07T00:58:43.219Z,25.58
2022-11-07T01:01:14.572Z,23.52
2022-11-07T01:04:00.859Z,21.52
2022-11-07T01:06:30.170Z,18.42
2022-11-07T01:08:58.008Z,17.30
2022-11-07T01:11:29.734Z,27.48
2022-11-07T01:14:01.336Z,17.90
2022-11-07T01:16:29.645Z,17.05
2022-11-07T01:18:57.014Z,18.30
2022-11-07T01:21:27.487Z,19.85
2022-11-07T01:23:54.726Z,23.13
2022-11-07T01:26:22.300Z,31.85
2022-11-07T01:28:49.752Z,34.60
2022-11-07T01:31:18.429Z,35.22
2022-11-07T01:33:46.100Z,32.05
2022-11-07T01:36:16.757Z,39.92
2022-11-07T01:38:48.598Z,38.35
2022-11-07T01:41:22.504Z,37.10
2022-11-07T01:43:55.788Z,38.17
2022-11-07T01:46:35.169Z,32.65
2022-11-07T01:49:26.135Z,36.30
2022-11-07T01:52:11.970Z,34.55
2022-11-07T01:54:46.529Z,43.75
2022-11-07T01:57:29.564Z,33.42
2022-11-07T02:00:00.380Z,40.60
2022-11-07T02:02:28.822Z,37.28
2022-11-07T02:04:59.010Z,42.50
2022-11-07T02:07:26.625Z,35.40
2022-11-07T02:09:54.644Z,43.53
2022-11-07T02:12:24.516Z,42.42
2022-11-07T02:14:51.653Z,43.97
2022-11-07T02:17:19.475Z,44.35
2022-11-07T02:19:50.991Z,41.97
2022-11-07T02:22:39.850Z,44.25
2022-11-07T02:25:11.231Z,46.58
2022-11-07T02:27:40.918Z,46.63
2022-11-07T02:30:20.020Z,44.72
2022-11-07T02:32:50.876Z,49.40
2022-11-07T02:35:36.635Z,49.15
2022-11-07T02:38:26.416Z,51.65
2022-11-07T02:41:18.460Z,49.50
2022-11-07T02:44:15.124Z,49.00
2022-11-07T02:47:00.666Z,45.80
2022-11-07T02:49:28.199Z,43.67
2022-11-07T02:51:55.311Z,43.78
2022-11-07T02:54:22.907Z,35.13
2022-11-07T02:56:50.309Z,32.63
2022-11-07T02:59:18.688Z,28.73
2022-11-07T03:01:47.247Z,26.52
2022-11-07T03:04:15.670Z,34.80
2022-11-07T03:06:42.850Z,30.83
2022-11-07T03:09:10.299Z,29.35
2022-11-07T03:11:37.604Z,31.45
2022-11-07T03:14:05.218Z,34.17
2022-11-07T03:16:34.747Z,28.25
2022-11-07T03:19:02.230Z,25.23
2022-11-07T03:21:29.460Z,27.25
2022-11-07T03:23:56.916Z,23.95
2022-11-07T03:26:24.195Z,26.88
2022-11-07T03:28:51.685Z,30.27
2022-11-07T03:31:18.920Z,23.67
2022-11-07T03:33:46.410Z,26.88
2022-11-07T03:36:13.579Z,22.50
2022-11-07T03:38:41.091Z,24.88
2022-11-07T03:41:08.462Z,25.88
2022-11-07T03:43:35.934Z,23.65
2022-11-07T03:46:03.142Z,28.85
2022-11-07T03:48:30.655Z,32.22
2022-11-07T03:50:57.820Z,43.15
2022-11-07T03:53:26.320Z,46.10
2022-11-07T03:55:55.894Z,51.95
2022-11-07T03:58:24.505Z,44.22
2022-11-07T04:00:51.770Z,52.22
2022-11-07T04:03:19.219Z,45.78
2022-11-07T04:05:46.464Z,50.80
2022-11-07T04:08:13.986Z,53.00
2022-11-07T04:10:41.117Z,50.85
2022-11-07T04:13:28.135Z,42.78
2022-11-07T04:16:16.450Z,42.90
2022-11-07T04:18:45.377Z,44.78
2022-11-07T04:21:12.581Z,58.17
2022-11-07T04:23:40.115Z,32.75
2022-11-07T04:26:25.995Z,33.60
2022-11-07T04:28:53.551Z,33.83
2022-11-07T04:31:20.752Z,36.42
2022-11-07T04:33:48.450Z,41.03
2022-11-07T04:36:15.790Z,52.22
2022-11-07T04:38:43.480Z,36.72
2022-11-07T04:41:22.667Z,43.10
2022-11-07T04:43:50.660Z,45.25
2022-11-07T04:46:17.886Z,33.63
2022-11-07T04:48:45.399Z,39.38
2022-11-07T04:51:19.330Z,48.03
2022-11-07T04:53:46.876Z,39.60
2022-11-07T04:56:14.096Z,55.13
2022-11-07T04:58:41.580Z,47.13
2022-11-07T05:01:08.729Z,56.70
2022-11-07T05:03:41.284Z,58.05
2022-11-07T05:06:14.768Z,92.27
2022-11-07T05:08:42.515Z,54.83
2022-11-07T05:11:09.714Z,122.78
2022-11-07T05:13:37.229Z,61.97
2022-11-07T05:16:04.750Z,64.82
2022-11-07T05:18:32.300Z,75.82
2022-11-07T05:20:59.450Z,148.63
2022-11-07T05:23:28.635Z,173.65
2022-11-07T05:25:55.910Z,137.93
2022-11-07T05:28:38.811Z,198.85
2022-11-07T05:31:08.257Z,158.90
2022-11-07T05:33:35.994Z,194.93
2022-11-07T05:36:21.469Z,220.77
2022-11-07T05:38:51.490Z,184.68
2022-11-07T05:41:21.415Z,176.70
2022-11-07T05:43:48.975Z,162.35
2022-11-07T05:46:16.257Z,164.93
2022-11-07T05:48:43.790Z,128.90
2022-11-07T05:51:10.971Z,72.28
2022-11-07T05:53:38.485Z,102.18
2022-11-07T05:56:08.578Z,108.20
2022-11-07T05:58:36.097Z,108.60
2022-11-07T06:01:05.770Z,91.10
2022-11-07T06:03:33.839Z,172.75
2022-11-07T06:06:01.039Z,160.98
2022-11-07T06:08:28.664Z,131.93
2022-11-07T06:10:58.764Z,219.07
2022-11-07T06:13:26.312Z,390.23
2022-11-07T06:15:53.511Z,277.65
2022-11-07T06:18:22.395Z,184.65
2022-11-07T06:20:50.115Z,163.13
2022-11-07T06:23:18.368Z,159.88
2022-11-07T06:25:46.135Z,129.38
2022-11-07T06:28:14.975Z,254.00
2022-11-07T06:30:42.807Z,117.70
2022-11-07T06:33:20.200Z,188.98
2022-11-07T06:35:49.791Z,108.03
2022-11-07T06:38:17.377Z,123.07
2022-11-07T06:40:44.798Z,172.60
2022-11-07T06:43:18.203Z,130.20
2022-11-07T06:45:46.781Z,203.23
2022-11-07T06:48:14.395Z,170.93
2022-11-07T06:50:41.714Z,164.85
2022-11-07T06:53:13.266Z,194.80
2022-11-07T06:55:40.977Z,150.98
2022-11-07T06:58:08.712Z,144.10
2022-11-07T07:00:37.165Z,165.00
2022-11-07T07:03:05.681Z,232.43
2022-11-07T07:05:34.155Z,176.57
2022-11-07T07:08:02.606Z,123.97
2022-11-07T07:10:30.080Z,112.28
2022-11-07T07:12:57.770Z,130.80
2022-11-07T07:15:25.217Z,201.13
2022-11-07T07:17:52.779Z,108.45
2022-11-07T07:20:20.133Z,110.40
2022-11-07T07:22:53.293Z,125.70
2022-11-07T07:25:24.660Z,120.80
2022-11-07T07:27:52.218Z,98.03
2022-11-07T07:30:19.436Z,95.00
2022-11-07T07:32:47.416Z,87.40
2022-11-07T07:35:14.682Z,81.18
2022-11-07T07:37:42.216Z,91.90
2022-11-07T07:40:10.837Z,71.35
2022-11-07T07:42:42.995Z,63.83
2022-11-07T07:45:12.065Z,57.88
2022-11-07T07:47:40.374Z,126.70
2022-11-07T07:50:09.699Z,159.88
2022-11-07T07:52:37.256Z,140.23
2022-11-07T07:55:05.746Z,103.97
2022-11-07T07:57:38.860Z,79.82
2022-11-07T08:00:06.537Z,85.95
2022-11-07T08:02:39.980Z,71.65
2022-11-07T08:05:07.931Z,57.00
2022-11-07T08:07:35.521Z,57.47
2022-11-07T08:10:26.940Z,52.85
2022-11-07T08:12:52.064Z,29.63
2022-11-07T08:15:22.475Z,29.33
2022-11-07T08:17:55.546Z,17.38
2022-11-07T08:20:26.153Z,21.65
2022-11-07T08:23:01.829Z,14.35
2022-11-07T08:25:29.294Z,18.80
2022-11-07T08:27:56.837Z,18.98
2022-11-07T08:30:24.106Z,20.90
2022-11-07T08:32:51.590Z,17.65
2022-11-07T08:35:18.826Z,16.58
2022-11-07T08:37:46.409Z,16.23
2022-11-07T08:40:14.227Z,15.73
2022-11-07T08:42:41.893Z,25.42
2022-11-07T08:45:09.692Z,23.75
2022-11-07T08:47:38.137Z,28.83
2022-11-07T08:50:07.212Z,13.10
2022-11-07T08:52:36.311Z,22.42
2022-11-07T08:55:04.706Z,20.55
2022-11-07T08:57:32.332Z,14.43
2022-11-07T08:59:59.647Z,10.00
2022-11-07T09:03:08.493Z,9.93
2022-11-07T09:05:14.851Z,8.80
2022-11-07T09:07:42.326Z,8.35
2022-11-07T09:10:09.960Z,10.32
2022-11-07T09:12:44.379Z,9.52
2022-11-07T09:15:11.739Z,10.80
2022-11-07T09:17:39.270Z,8.02
2022-11-07T09:20:07.665Z,12.25
2022-11-07T09:22:35.241Z,13.05
2022-11-07T09:25:03.035Z,14.63
2022-11-07T09:27:31.705Z,11.13
2022-11-07T09:29:59.047Z,9.77
2022-11-07T09:32:43.936Z,11.20
2022-11-07T09:35:12.550Z,11.00
2022-11-07T09:37:41.780Z,10.00
2022-11-07T09:40:46.537Z,9.57
2022-11-07T09:43:32.841Z,8.88
2022-11-07T09:46:18.935Z,11.68
2022-11-07T09:51:34.027Z,7.00
2022-11-07T09:54:12.606Z,8.93
2022-11-07T09:56:42.566Z,8.13
2022-11-07T09:59:36.487Z,7.43
2022-11-07T10:02:12.094Z,12.38
2022-11-07T10:04:39.751Z,8.23
2022-11-07T10:07:29.795Z,11.02
2022-11-07T10:10:21.884Z,7.07
2022-11-07T10:13:28.725Z,9.18
2022-11-07T10:16:18.115Z,8.02
2022-11-07T10:19:08.311Z,8.45
2022-11-07T10:21:44.075Z,7.90
2022-11-07T10:24:42.280Z,8.68
2022-11-07T10:27:11.618Z,9.25
2022-11-07T10:29:51.213Z,7.25
2022-11-07T10:32:24.360Z,10.18
2022-11-07T10:35:20.879Z,15.82
2022-11-07T10:37:56.728Z,7.85
2022-11-07T10:40:26.791Z,10.70
2022-11-07T10:42:56.627Z,7.95
2022-11-07T10:45:27.965Z,8.45
2022-11-07T10:48:03.719Z,6.60
2022-11-07T10:50:31.616Z,9.98
2022-11-07T10:53:02.480Z,13.85
2022-11-07T10:55:42.263Z,11.32
2022-11-07T10:58:20.289Z,9.70
2022-11-07T11:01:06.948Z,7.68
2022-11-07T11:03:44.798Z,6.60
2022-11-07T11:06:18.473Z,13.10
2022-11-07T11:08:48.464Z,6.78
2022-11-07T11:11:34.619Z,6.45
2022-11-07T11:14:23.538Z,8.93
2022-11-07T11:16:55.633Z,10.98
2022-11-07T11:19:48.319Z,5.18
2022-11-07T11:22:18.752Z,7.30
2022-11-07T11:24:46.735Z,5.47
2022-11-07T11:27:22.130Z,6.85
2022-11-07T11:30:19.902Z,5.68
2022-11-07T11:32:58.038Z,8.25
2022-11-07T11:35:48.338Z,10.43
2022-11-07T11:38:27.346Z,6.90
2022-11-07T11:41:06.066Z,5.53
2022-11-07T11:43:46.938Z,4.78
2022-11-07T11:46:26.069Z,5.50
2022-11-07T11:49:01.148Z,9.20
2022-11-07T11:51:37.338Z,5.75
2022-11-07T11:54:09.735Z,5.35
2022-11-07T11:56:49.957Z,5.10
2022-11-07T11:59:58.353Z,9.07
2022-11-07T12:03:00.097Z,5.20
2022-11-07T12:06:12.348Z,5.70
2022-11-07T12:09:06.974Z,6.35
2022-11-07T12:11:56.617Z,5.20
2022-11-07T12:14:44.731Z,5.63
2022-11-07T12:17:52.968Z,8.10
2022-11-07T12:20:29.846Z,5.28
2022-11-07T12:23:38.903Z,4.03
2022-11-07T12:26:24.653Z,6.85
2022-11-07T12:29:09.076Z,5.15
2022-11-07T12:31:52.067Z,4.45
2022-11-07T12:34:30.482Z,4.47
2022-11-07T12:37:14.876Z,3.17
2022-11-07T12:40:10.379Z,6.68
2022-11-07T12:42:48.571Z,3.43
2022-11-07T12:45:37.252Z,4.60
2022-11-07T12:48:23.779Z,5.72
2022-11-07T12:51:10.365Z,5.57
2022-11-07T12:53:53.548Z,4.63
2022-11-07T12:56:27.646Z,5.57
2022-11-07T12:58:55.811Z,6.85
2022-11-07T13:01:32.762Z,5.18
2022-11-07T13:04:12.358Z,2.65
2022-11-07T13:06:58.417Z,3.70
2022-11-07T13:12:37.410Z,4.97
2022-11-07T13:15:09.501Z,6.13
2022-11-07T13:17:47.370Z,3.67
2022-11-07T13:20:21.162Z,4.45
2022-11-07T13:22:50.242Z,5.20
2022-11-07T13:25:30.346Z,5.60
2022-11-07T13:27:57.735Z,4.03
2022-11-07T13:30:31.546Z,5.57
2022-11-07T13:33:00.675Z,7.10
2022-11-07T13:35:36.403Z,5.90
2022-11-07T13:38:19.675Z,8.18
2022-11-07T13:40:52.655Z,6.00
2022-11-07T13:43:22.379Z,4.75
2022-11-07T13:45:56.945Z,7.85
2022-11-07T13:48:31.367Z,4.20
2022-11-07T13:51:08.869Z,8.68
2022-11-07T13:53:42.480Z,7.25
2022-11-07T13:56:24.717Z,8.95
2022-11-07T13:58:52.267Z,10.38
2022-11-07T14:01:19.727Z,3.80
2022-11-07T14:03:47.356Z,8.02
2022-11-07T14:06:17.179Z,4.97
2022-11-07T14:08:47.385Z,4.93
2022-11-07T14:11:19.360Z,7.18
2022-11-07T14:13:49.148Z,6.15
2022-11-07T14:16:26.398Z,5.25
2022-11-07T14:19:02.945Z,6.75
2022-11-07T14:21:36.821Z,11.93
2022-11-07T14:24:26.790Z,5.85
2022-11-07T14:27:03.380Z,6.65
2022-11-07T14:29:31.077Z,5.95
2022-11-07T14:32:03.917Z,4.57
2022-11-07T14:34:34.427Z,4.57
2022-11-07T14:37:06.999Z,5.18
2022-11-07T14:39:34.965Z,5.57
2022-11-07T14:42:04.011Z,6.22
2022-11-07T14:44:54.044Z,4.40
2022-11-07T14:47:25.451Z,11.15
2022-11-07T14:49:53.631Z,7.63
2022-11-07T14:52:24.182Z,13.02
2022-11-07T14:55:05.867Z,10.00
2022-11-07T14:57:38.545Z,12.07
2022-11-07T15:00:18.454Z,9.18
2022-11-07T15:02:49.756Z,8.45
2022-11-07T15:05:26.320Z,6.38
2022-11-07T15:07:55.661Z,7.82
2022-11-07T15:10:35.805Z,11.13
2022-11-07T15:13:22.107Z,5.43
2022-11-07T15:21:01.687Z,9.18
2022-11-07T15:23:33.056Z,7.20
2022-11-07T15:26:07.412Z,11.50
2022-11-07T15:28:50.297Z,8.75
2022-11-07T15:31:29.482Z,7.38
2022-11-07T15:33:59.574Z,10.02
2022-11-07T15:36:27.618Z,8.18
2022-11-07T15:38:56.516Z,8.32
2022-11-07T15:41:24.010Z,16.92
2022-11-07T15:43:51.844Z,10.75
2022-11-07T15:46:31.397Z,9.80
2022-11-07T15:48:59.248Z,11.15
2022-11-07T15:51:26.765Z,13.48
2022-11-07T15:53:54.725Z,12.40
2022-11-07T15:56:24.766Z,16.40
2022-11-07T15:58:55.252Z,21.13
2022-11-07T16:01:23.751Z,29.98
2022-11-07T16:03:51.861Z,19.40
2022-11-07T16:06:29.134Z,21.92
2022-11-07T16:08:57.177Z,19.10
2022-11-07T16:11:24.628Z,18.98
2022-11-07T16:13:59.239Z,26.45
2022-11-07T16:16:37.702Z,30.13
2022-11-07T16:19:05.969Z,25.70
2022-11-07T16:21:34.057Z,23.83
2022-11-07T16:24:01.798Z,21.25
2022-11-07T16:26:30.684Z,24.55
2022-11-07T16:28:58.476Z,20.80
2022-11-07T16:31:25.836Z,23.02
2022-11-07T16:33:56.495Z,17.77
2022-11-07T16:36:26.769Z,17.52
2022-11-07T16:38:55.511Z,16.77
2022-11-07T16:41:23.684Z,22.45
2022-11-07T16:43:52.034Z,20.60
2022-11-07T16:46:22.195Z,43.55
2022-11-07T16:48:52.405Z,44.15
2022-11-07T16:51:22.266Z,64.93
2022-11-07T16:53:49.992Z,47.22
2022-11-07T16:56:23.267Z,34.88
2022-11-07T16:58:52.653Z,39.80
2022-11-07T17:01:20.821Z,35.55
2022-11-07T17:03:48.656Z,47.22
2022-11-07T17:06:27.254Z,45.63
2022-11-07T17:08:59.474Z,43.72
2022-11-07T17:11:31.541Z,38.28
2022-11-07T17:13:59.649Z,44.53
2022-11-07T17:16:30.160Z,63.22
2022-11-07T17:18:57.910Z,73.45
2022-11-07T17:21:31.431Z,74.72
2022-11-07T17:24:01.332Z,91.40
2022-11-07T17:26:31.799Z,97.90
2022-11-07T17:28:59.996Z,227.25
2022-11-07T17:31:27.362Z,128.30
2022-11-07T17:33:55.167Z,127.80
2022-11-07T17:36:36.585Z,119.88
2022-11-07T17:39:11.523Z,88.20
2022-11-07T17:41:41.008Z,107.82
2022-11-07T17:44:09.665Z,92.95
2022-11-07T17:46:43.594Z,149.50
2022-11-07T17:49:14.834Z,116.38
2022-11-07T17:51:45.425Z,155.68
2022-11-07T17:54:15.094Z,126.93
2022-11-07T17:56:43.191Z,78.32
2022-11-07T17:59:17.757Z,292.35
2022-11-07T18:01:45.245Z,367.42
2022-11-07T18:04:14.125Z,159.52
2022-11-07T18:06:43.021Z,100.68
2022-11-07T18:09:15.089Z,73.35
2022-11-07T18:11:43.949Z,72.47
2022-11-07T18:14:13.882Z,89.78
2022-11-07T18:16:41.858Z,52.25
2022-11-07T18:19:10.456Z,68.20
2022-11-07T18:21:37.926Z,81.22
2022-11-07T18:24:06.008Z,82.75
2022-11-07T18:26:35.077Z,165.73
2022-11-07T18:29:06.488Z,242.27
2022-11-07T18:31:36.336Z,127.07
2022-11-07T18:34:07.536Z,108.75
2022-11-07T18:36:38.481Z,87.03
2022-11-07T18:39:09.324Z,78.47
2022-11-07T18:41:36.916Z,72.15
2022-11-07T18:44:05.367Z,77.43
2022-11-07T18:46:33.985Z,63.30
2022-11-07T18:49:02.264Z,66.35
2022-11-07T18:51:29.787Z,65.82
2022-11-07T18:54:00.113Z,58.03
2022-11-07T18:56:28.275Z,61.35
2022-11-07T18:58:56.635Z,52.50
2022-11-07T19:01:28.498Z,42.20
2022-11-07T19:03:58.155Z,57.40
2022-11-07T19:06:27.392Z,50.05
2022-11-07T19:08:55.259Z,49.05
2022-11-07T19:11:28.996Z,52.28
2022-11-07T19:14:01.332Z,39.97
2022-11-07T19:16:30.001Z,42.05
2022-11-07T19:18:59.750Z,43.85
2022-11-07T19:21:27.574Z,50.63
2022-11-07T19:23:55.459Z,42.33
2022-11-07T19:26:25.034Z,53.92
2022-11-07T19:28:56.100Z,49.03
2022-11-07T19:31:23.559Z,49.70
2022-11-07T19:33:51.436Z,40.85
2022-11-07T19:36:20.597Z,60.03
2022-11-07T19:38:49.456Z,58.88
2022-11-07T19:41:17.962Z,57.30
2022-11-07T19:43:50.230Z,56.67
2022-11-07T19:46:21.841Z,48.15
2022-11-07T19:48:51.132Z,56.83
2022-11-07T19:51:22.938Z,71.00
2022-11-07T19:53:55.986Z,129.57
2022-11-07T19:56:33.577Z,95.30
2022-11-07T19:59:01.760Z,108.78
2022-11-07T20:01:32.140Z,65.25
2022-11-07T20:04:01.356Z,57.08
2022-11-07T20:06:35.728Z,67.25
2022-11-07T20:09:08.449Z,68.25
2022-11-07T20:11:36.217Z,54.15
2022-11-07T20:14:04.651Z,57.33
2022-11-07T20:16:33.735Z,345.98
2022-11-07T20:19:02.116Z,123.22
2022-11-07T20:21:30.638Z,98.25
2022-11-07T20:23:59.687Z,139.70
2022-11-07T20:26:29.484Z,181.50
2022-11-07T20:28:57.440Z,154.52
2022-11-07T20:31:30.602Z,148.43
2022-11-07T20:34:00.423Z,178.93
2022-11-07T20:36:28.701Z,163.13
2022-11-07T20:38:56.778Z,190.55
2022-11-07T20:41:25.048Z,156.25
2022-11-07T20:44:19.687Z,162.95
2022-11-07T20:46:47.307Z,127.80
2022-11-07T20:49:16.811Z,131.98
2022-11-07T20:51:45.296Z,138.63
2022-11-07T20:54:14.995Z,156.00
2022-11-07T20:56:42.997Z,138.68
2022-11-07T20:59:10.799Z,122.35
2022-11-07T21:01:38.631Z,115.75
2022-11-07T21:04:10.860Z,143.38
2022-11-07T21:06:38.167Z,131.50
2022-11-07T21:09:06.627Z,132.18
2022-11-07T21:11:34.345Z,120.88
2022-11-07T21:14:02.079Z,109.25
2022-11-07T21:16:29.801Z,146.60
2022-11-07T21:18:57.474Z,152.52
2022-11-07T21:21:27.754Z,142.27
2022-11-07T21:24:00.171Z,133.02
2022-11-07T21:26:32.028Z,192.13
2022-11-07T21:29:00.957Z,231.35
2022-11-07T21:31:30.825Z,293.35
2022-11-07T21:34:00.121Z,195.98
2022-11-07T21:36:30.595Z,290.25
2022-11-07T21:39:00.237Z,258.77
2022-11-07T21:41:28.797Z,270.63
2022-11-07T21:43:57.408Z,176.68
2022-11-07T21:46:31.512Z,132.10
2022-11-07T21:48:59.384Z,122.30
2022-11-07T21:51:31.331Z,118.55
2022-11-07T21:54:00.358Z,105.95
2022-11-07T21:56:30.561Z,113.55
2022-11-07T21:59:00.695Z,146.18
2022-11-07T22:01:29.691Z,186.70
2022-11-07T22:04:07.393Z,120.40
2022-11-07T22:06:40.790Z,88.45
2022-11-07T22:09:10.450Z,68.60
2022-11-07T22:11:38.267Z,69.03
2022-11-07T22:14:06.444Z,87.75
2022-11-07T22:16:33.977Z,104.78
2022-11-07T22:19:01.746Z,90.43
2022-11-07T22:21:31.590Z,77.63
2022-11-07T22:23:59.364Z,91.22
2022-11-07T22:26:28.314Z,100.65
2022-11-07T22:28:59.074Z,164.52
2022-11-07T22:31:30.407Z,136.35
2022-11-07T22:33:59.923Z,109.28
2022-11-07T22:36:28.200Z,138.40
2022-11-07T22:38:58.070Z,121.22
2022-11-07T22:41:27.474Z,106.32
2022-11-07T22:43:56.251Z,103.65
2022-11-07T22:46:25.990Z,98.80
2022-11-07T22:48:54.643Z,93.25
2022-11-07T22:51:24.944Z,78.50
2022-11-07T22:54:03.088Z,90.88
2022-11-07T22:56:30.687Z,92.40
2022-11-07T22:58:59.180Z,113.90
2022-11-07T23:01:38.066Z,107.15
2022-11-07T23:04:07.110Z,108.28
2022-11-07T23:06:34.578Z,157.85
2022-11-07T23:09:02.763Z,168.25
2022-11-07T23:11:48.796Z,162.02
2022-11-07T23:14:23.798Z,177.70
2022-11-07T23:16:55.798Z,165.82
2022-11-07T23:19:26.208Z,157.23
2022-11-07T23:21:55.220Z,176.40
2022-11-07T23:24:23.605Z,162.13
2022-11-07T23:26:51.028Z,172.57
2022-11-07T23:29:21.220Z,182.25
2022-11-07T23:31:50.073Z,170.05
2022-11-07T23:34:19.288Z,166.43
2022-11-07T23:36:46.624Z,174.52
2022-11-07T23:39:19.088Z,168.18
2022-11-07T23:41:46.920Z,172.75
2022-11-07T23:44:15.308Z,178.15
2022-11-07T23:47:02.046Z,192.57
2022-11-07T23:49:48.804Z,192.63
2022-11-07T23:52:17.648Z,197.05
2022-11-07T23:55:03.786Z,213.52
2022-11-07T23:57:34.310Z,196.38
